Time;durP1;ratioP1;P1;durP2;ratioP2;P2;SDS_P1;SDS_P2;PMS_P1;PMS_P2;Temp;Humidity;BMP_temperature;BMP_pressure;BME280_temperature;BME280_humidity;BME280_pressure;Samples;Min_cycle;Max_cycle;Signal;HPM_P1;HPM_P2
2022/03/14 00:00:53;;;;;;;188.02;93.90;;;;;;;;;;5013780;28;20424;-59
2022/03/14 00:03:21;;;;;;;194.32;94.72;;;;;;;;;;5013966;28;20177;-58
2022/03/14 00:05:47;;;;;;;192.52;97.40;;;;;;;;;;5014430;28;20279;-57
2022/03/14 00:08:13;;;;;;;190.35;92.40;;;;;;;;;;5013805;28;20220;-59
2022/03/14 00:10:40;;;;;;;121.73;84.47;;;;;;;;;;5013442;28;20170;-60
2022/03/14 00:13:07;;;;;;;184.25;90.03;;;;;;;;;;5013706;28;20900;-58
2022/03/14 00:15:33;;;;;;;192.10;96.82;;;;;;;;;;5013617;28;20280;-59
2022/03/14 00:18:03;;;;;;;170.23;90.90;;;;;;;;;;5013625;28;20197;-59
2022/03/14 00:20:29;;;;;;;130.52;86.25;;;;;;;;;;5013446;28;20190;-58
2022/03/14 00:22:59;;;;;;;193.23;95.53;;;;;;;;;;5013255;28;20212;-59
2022/03/14 00:25:26;;;;;;;192.38;96.03;;;;;;;;;;5013287;28;20836;-58
2022/03/14 00:27:54;;;;;;;197.07;98.75;;;;;;;;;;5013417;28;20166;-59
2022/03/14 00:30:20;;;;;;;193.55;104.18;;;;;;;;;;5013056;28;20186;-58
2022/03/14 00:32:47;;;;;;;191.48;98.50;;;;;;;;;;5013348;28;20176;-56
2022/03/14 00:35:13;;;;;;;190.35;97.57;;;;;;;;;;5013151;28;20212;-59
2022/03/14 00:37:40;;;;;;;185.20;96.47;;;;;;;;;;5013006;28;20177;-59
2022/03/14 00:40:07;;;;;;;187.65;96.82;;;;;;;;;;5012906;28;20204;-59
2022/03/14 00:42:33;;;;;;;193.13;99.10;;;;;;;;;;5013275;28;20213;-56
2022/03/14 00:44:59;;;;;;;186.10;96.18;;;;;;;;;;5012871;28;20212;-59
2022/03/14 00:47:26;;;;;;;183.57;98.63;;;;;;;;;;5013013;28;20184;-60
2022/03/14 00:49:52;;;;;;;189.93;98.50;;;;;;;;;;5012953;28;20182;-59
2022/03/14 00:52:18;;;;;;;186.93;101.40;;;;;;;;;;5012430;28;20691;-57
2022/03/14 00:54:45;;;;;;;182.32;97.55;;;;;;;;;;5012838;28;20228;-58
2022/03/14 00:57:11;;;;;;;187.02;98.43;;;;;;;;;;5012932;28;20177;-60
2022/03/14 00:59:39;;;;;;;193.43;98.97;;;;;;;;;;5012793;28;20253;-59
2022/03/14 01:02:05;;;;;;;191.45;95.72;;;;;;;;;;5012642;28;20189;-59
2022/03/14 01:04:31;;;;;;;189.00;98.32;;;;;;;;;;5012525;28;20288;-59
2022/03/14 01:06:57;;;;;;;184.20;97.73;;;;;;;;;;5012449;28;20284;-59
2022/03/14 01:09:23;;;;;;;180.07;97.60;;;;;;;;;;5012704;28;20404;-58
2022/03/14 01:11:49;;;;;;;203.88;104.50;;;;;;;;;;5012461;28;20408;-60
2022/03/14 01:14:15;;;;;;;199.10;102.57;;;;;;;;;;5012491;28;20663;-59
2022/03/14 01:16:41;;;;;;;198.43;103.43;;;;;;;;;;5012529;28;20952;-59
2022/03/14 01:19:11;;;;;;;198.23;103.38;;;;;;;;;;5012390;28;20181;-58
2022/03/14 01:21:38;;;;;;;205.82;104.72;;;;;;;;;;5012518;28;20189;-59
2022/03/14 01:24:04;;;;;;;191.32;104.50;;;;;;;;;;5012527;28;20181;-60
2022/03/14 01:26:30;;;;;;;197.95;105.53;;;;;;;;;;5012245;28;20259;-56
2022/03/14 01:28:57;;;;;;;197.30;104.33;;;;;;;;;;5012376;28;20672;-60
2022/03/14 01:31:23;;;;;;;190.75;99.72;;;;;;;;;;5012055;28;20400;-62
2022/03/14 01:33:48;;;;;;;191.07;103.03;;;;;;;;;;5012156;28;20185;-59
2022/03/14 01:36:14;;;;;;;196.77;104.87;;;;;;;;;;5012042;28;20458;-61
2022/03/14 01:38:40;;;;;;;195.30;104.77;;;;;;;;;;5011983;28;20439;-60
2022/03/14 01:41:06;;;;;;;205.07;104.27;;;;;;;;;;5011955;28;20419;-59
2022/03/14 01:43:32;;;;;;;211.77;106.73;;;;;;;;;;5012083;28;20780;-60
2022/03/14 01:45:59;;;;;;;201.07;107.60;;;;;;;;;;5011911;28;20493;-60
2022/03/14 01:48:26;;;;;;;193.87;103.30;;;;;;;;;;5012015;28;20724;-60
2022/03/14 01:50:52;;;;;;;129.90;95.40;;;;;;;;;;5011683;28;20893;-59
2022/03/14 01:53:19;;;;;;;172.25;101.95;;;;;;;;;;5011929;28;20182;-61
2022/03/14 01:55:45;;;;;;;211.30;108.90;;;;;;;;;;5011774;28;20272;-61
2022/03/14 01:58:11;;;;;;;215.40;107.82;;;;;;;;;;5011861;28;20197;-60
2022/03/14 02:00:37;;;;;;;216.25;109.22;;;;;;;;;;5011591;28;20676;-58
2022/03/14 02:03:03;;;;;;;203.17;107.43;;;;;;;;;;5011760;28;20185;-61
2022/03/14 02:05:29;;;;;;;178.90;104.32;;;;;;;;;;5011629;28;20471;-61
2022/03/14 02:07:58;;;;;;;203.50;108.30;;;;;;;;;;5011839;28;20172;-60
2022/03/14 02:10:24;;;;;;;207.80;106.88;;;;;;;;;;5011353;28;20474;-60
2022/03/14 02:12:50;;;;;;;117.30;92.83;;;;;;;;;;5011693;28;20252;-60
2022/03/14 02:15:16;;;;;;;209.17;106.97;;;;;;;;;;5011622;28;20608;-61
2022/03/14 02:17:42;;;;;;;198.27;105.43;;;;;;;;;;5011619;28;20418;-59
2022/03/14 02:20:08;;;;;;;200.73;100.47;;;;;;;;;;5011474;28;20511;-59
2022/03/14 02:22:34;;;;;;;176.27;99.68;;;;;;;;;;5011655;28;20417;-56
2022/03/14 02:25:01;;;;;;;186.57;102.97;;;;;;;;;;5011273;28;20201;-59
2022/03/14 02:27:27;;;;;;;208.57;105.80;;;;;;;;;;5011676;28;21145;-60
2022/03/14 02:29:52;;;;;;;202.10;103.30;;;;;;;;;;5013301;28;20283;-60
2022/03/14 02:32:19;;;;;;;192.47;99.33;;;;;;;;;;5018488;28;20413;-61
2022/03/14 02:34:45;;;;;;;190.68;99.93;;;;;;;;;;5015874;28;20428;-58
2022/03/14 02:37:11;;;;;;;196.88;99.82;;;;;;;;;;5015787;28;20181;-59
2022/03/14 02:39:40;;;;;;;185.05;95.80;;;;;;;;;;5015485;28;20261;-59
2022/03/14 02:42:07;;;;;;;196.10;99.97;;;;;;;;;;5015139;28;20174;-58
2022/03/14 02:44:34;;;;;;;189.70;97.28;;;;;;;;;;5015336;28;20573;-55
2022/03/14 02:46:59;;;;;;;200.07;98.65;;;;;;;;;;5015170;28;20189;-59
2022/03/14 02:49:25;;;;;;;208.60;103.57;;;;;;;;;;5015208;28;20169;-57
2022/03/14 02:51:52;;;;;;;207.57;102.33;;;;;;;;;;5014609;28;20405;-60
2022/03/14 02:54:19;;;;;;;212.02;104.35;;;;;;;;;;5014958;28;20920;-58
2022/03/14 02:56:45;;;;;;;214.18;103.47;;;;;;;;;;5015111;28;20182;-59
2022/03/14 02:59:11;;;;;;;203.50;105.37;;;;;;;;;;5015021;28;20184;-60
2022/03/14 03:01:37;;;;;;;201.63;101.75;;;;;;;;;;5014921;28;20418;-59
2022/03/14 03:04:04;;;;;;;205.20;103.15;;;;;;;;;;5014733;28;20190;-60
2022/03/14 03:06:33;;;;;;;219.18;100.75;;;;;;;;;;5014844;28;20224;-59
2022/03/14 03:08:59;;;;;;;213.40;97.07;;;;;;;;;;5014855;28;20178;-59
2022/03/14 03:11:25;;;;;;;195.70;101.75;;;;;;;;;;5014574;28;20169;-60
2022/03/14 03:13:54;;;;;;;199.00;101.20;;;;;;;;;;5014790;28;20262;-60
2022/03/14 03:16:20;;;;;;;205.27;99.93;;;;;;;;;;5014618;28;20439;-59
2022/03/14 03:18:46;;;;;;;195.55;94.90;;;;;;;;;;5014682;28;20185;-59
2022/03/14 03:21:12;;;;;;;187.00;94.43;;;;;;;;;;5014315;28;20170;-58
2022/03/14 03:23:42;;;;;;;185.43;97.07;;;;;;;;;;5009474;28;20268;-60
2022/03/14 03:26:08;;;;;;;171.02;90.30;;;;;;;;;;5014591;28;20256;-59
2022/03/14 03:28:37;;;;;;;190.33;91.80;;;;;;;;;;5014564;28;20201;-60
2022/03/14 03:31:06;;;;;;;194.18;93.68;;;;;;;;;;5014579;28;20419;-60
2022/03/14 03:33:33;;;;;;;190.07;90.10;;;;;;;;;;5015149;28;20178;-59
2022/03/14 03:35:59;;;;;;;184.98;91.55;;;;;;;;;;5014247;28;20205;-58
2022/03/14 03:38:25;;;;;;;168.63;90.15;;;;;;;;;;5014352;28;20208;-60
2022/03/14 03:40:51;;;;;;;186.15;88.25;;;;;;;;;;5012743;28;20174;-55
2022/03/14 03:43:17;;;;;;;175.73;87.60;;;;;;;;;;5014215;28;20169;-59
2022/03/14 03:45:43;;;;;;;156.25;81.53;;;;;;;;;;5014110;28;20612;-58
2022/03/14 03:48:09;;;;;;;95.40;73.90;;;;;;;;;;5014157;28;20173;-60
2022/03/14 03:50:35;;;;;;;178.70;84.40;;;;;;;;;;5013815;28;20431;-57
2022/03/14 03:53:01;;;;;;;179.57;88.03;;;;;;;;;;5014070;28;20404;-59
2022/03/14 03:55:27;;;;;;;128.65;78.03;;;;;;;;;;5013843;28;20515;-58
2022/03/14 03:57:53;;;;;;;177.73;87.50;;;;;;;;;;5013863;28;20281;-59
2022/03/14 04:00:19;;;;;;;176.47;91.40;;;;;;;;;;5013425;28;20173;-57
2022/03/14 04:02:45;;;;;;;148.77;85.07;;;;;;;;;;5013802;28;20405;-60
2022/03/14 04:05:14;;;;;;;175.10;87.43;;;;;;;;;;5014628;28;20746;-59
2022/03/14 04:07:41;;;;;;;184.40;89.63;;;;;;;;;;5013964;28;20269;-57
2022/03/14 04:10:08;;;;;;;143.80;83.10;;;;;;;;;;5013559;28;20181;-60
2022/03/14 04:12:34;;;;;;;179.52;88.97;;;;;;;;;;5013655;28;20169;-59
2022/03/14 04:15:04;;;;;;;74.20;67.20;;;;;;;;;;5013561;28;20567;-60
2022/03/14 04:17:31;;;;;;;37.22;35.03;;;;;;;;;;5013469;28;20440;-60
2022/03/14 04:20:00;;;;;;;40.13;37.53;;;;;;;;;;5013565;28;20188;-60
2022/03/14 04:22:27;;;;;;;49.17;45.67;;;;;;;;;;5013416;28;20184;-60
2022/03/14 04:24:53;;;;;;;24.48;23.38;;;;;;;;;;5013371;28;20189;-60
2022/03/14 04:27:19;;;;;;;34.23;32.23;;;;;;;;;;5013367;28;20179;-60
2022/03/14 04:29:46;;;;;;;53.67;49.47;;;;;;;;;;5013320;28;20458;-60
2022/03/14 04:32:12;;;;;;;40.17;37.70;;;;;;;;;;5012993;28;20487;-61
2022/03/14 04:34:37;;;;;;;55.83;51.20;;;;;;;;;;5013208;28;20193;-61
2022/03/14 04:37:04;;;;;;;31.07;29.47;;;;;;;;;;5013294;28;20565;-60
2022/03/14 04:39:29;;;;;;;57.67;52.92;;;;;;;;;;5013130;28;20434;-60
2022/03/14 04:41:56;;;;;;;75.03;67.67;;;;;;;;;;5012863;28;20174;-61
2022/03/14 04:44:23;;;;;;;103.10;77.80;;;;;;;;;;5012999;28;20443;-60
2022/03/14 04:46:49;;;;;;;102.75;77.38;;;;;;;;;;5012901;28;20205;-60
2022/03/14 04:49:15;;;;;;;75.13;67.43;;;;;;;;;;5012965;28;20181;-60
2022/03/14 04:51:42;;;;;;;70.68;64.22;;;;;;;;;;5012548;28;20177;-60
2022/03/14 04:54:08;;;;;;;107.28;75.13;;;;;;;;;;5012876;28;20192;-60
2022/03/14 04:56:34;;;;;;;127.57;79.88;;;;;;;;;;5012797;28;20565;-60
2022/03/14 04:59:00;;;;;;;89.43;74.17;;;;;;;;;;5012754;28;20256;-59
2022/03/14 05:01:26;;;;;;;136.80;80.97;;;;;;;;;;5012516;28;20737;-57
2022/03/14 05:03:52;;;;;;;143.00;83.43;;;;;;;;;;5012766;28;20884;-58
2022/03/14 05:06:18;;;;;;;153.85;83.72;;;;;;;;;;5012414;28;20227;-57
2022/03/14 05:08:45;;;;;;;157.27;84.75;;;;;;;;;;5012696;28;20652;-59
2022/03/14 05:11:11;;;;;;;54.55;50.17;;;;;;;;;;5012356;28;20204;-56
2022/03/14 05:13:37;;;;;;;17.17;16.58;;;;;;;;;;5012563;28;20185;-60
2022/03/14 05:16:04;;;;;;;19.65;18.90;;;;;;;;;;5012382;28;20745;-59
2022/03/14 05:18:30;;;;;;;10.57;10.27;;;;;;;;;;5012441;28;20260;-56
2022/03/14 05:20:56;;;;;;;6.47;6.35;;;;;;;;;;5012146;28;20299;-56
2022/03/14 05:23:23;;;;;;;5.00;4.90;;;;;;;;;;5012510;28;20180;-59
2022/03/14 05:25:49;;;;;;;3.22;3.13;;;;;;;;;;5012225;28;20460;-58
2022/03/14 05:28:15;;;;;;;3.97;3.83;;;;;;;;;;5012367;28;20664;-59
2022/03/14 05:30:41;;;;;;;3.30;3.20;;;;;;;;;;5011847;28;20892;-60
2022/03/14 05:33:07;;;;;;;35.30;33.28;;;;;;;;;;5012170;28;20427;-60
2022/03/14 05:35:33;;;;;;;33.15;31.30;;;;;;;;;;5011954;28;20247;-59
2022/03/14 05:37:59;;;;;;;10.20;9.90;;;;;;;;;;5012073;28;20188;-59
2022/03/14 05:40:25;;;;;;;22.90;21.90;;;;;;;;;;5011764;28;20177;-59
2022/03/14 05:42:51;;;;;;;28.52;27.13;;;;;;;;;;5011815;28;20436;-60
2022/03/14 05:45:18;;;;;;;36.60;34.40;;;;;;;;;;5011761;28;20241;-60
2022/03/14 05:47:46;;;;;;;37.60;35.25;;;;;;;;;;5011962;28;20404;-60
2022/03/14 05:50:12;;;;;;;31.02;29.38;;;;;;;;;;5011629;28;20182;-60
2022/03/14 05:52:38;;;;;;;30.30;28.70;;;;;;;;;;5011814;28;20181;-60
2022/03/14 05:55:05;;;;;;;39.53;36.97;;;;;;;;;;5011678;28;20189;-60
2022/03/14 05:57:32;;;;;;;31.83;30.00;;;;;;;;;;5011699;28;20189;-60
2022/03/14 05:59:58;;;;;;;40.67;38.00;;;;;;;;;;5011809;28;20193;-60
2022/03/14 06:02:25;;;;;;;16.73;16.13;;;;;;;;;;5011609;28;20589;-59
2022/03/14 06:04:51;;;;;;;37.35;35.05;;;;;;;;;;5015374;28;20501;-58
2022/03/14 06:07:21;;;;;;;31.90;30.13;;;;;;;;;;5012180;28;20668;-60
2022/03/14 06:09:48;;;;;;;41.38;38.65;;;;;;;;;;5012610;28;20174;-60
2022/03/14 06:12:43;;;;;;;42.58;39.70;;;;;;;;;;5010386;28;20195;-59
2022/03/14 06:15:12;;;;;;;41.33;38.53;;;;;;;;;;4998931;28;20711;-60
2022/03/14 06:17:40;;;;;;;47.72;44.20;;;;;;;;;;5011658;28;20188;-59
2022/03/14 06:20:07;;;;;;;49.70;45.85;;;;;;;;;;5011420;28;20190;-60
2022/03/14 06:22:37;;;;;;;64.40;58.70;;;;;;;;;;5011359;28;20720;-59
2022/03/14 06:25:03;;;;;;;57.97;52.78;;;;;;;;;;5011291;28;20193;-59
2022/03/14 06:27:29;;;;;;;113.22;73.03;;;;;;;;;;5011506;28;20292;-60
2022/03/14 06:29:55;;;;;;;155.20;78.23;;;;;;;;;;5011687;28;20176;-58
2022/03/14 06:32:21;;;;;;;157.30;78.67;;;;;;;;;;5011395;28;20462;-59
2022/03/14 06:34:47;;;;;;;140.10;76.13;;;;;;;;;;5011369;28;20428;-60
2022/03/14 06:37:13;;;;;;;134.90;75.07;;;;;;;;;;5011373;28;20422;-60
2022/03/14 06:39:39;;;;;;;157.77;80.30;;;;;;;;;;5011405;28;20174;-60
2022/03/14 06:42:09;;;;;;;161.02;80.18;;;;;;;;;;5011176;28;20269;-59
2022/03/14 06:44:39;;;;;;;163.02;76.90;;;;;;;;;;5011130;28;20592;-60
2022/03/14 06:47:07;;;;;;;160.40;75.72;;;;;;;;;;5011135;28;20267;-59
2022/03/14 06:49:33;;;;;;;176.80;81.30;;;;;;;;;;5011329;28;20169;-60
2022/03/14 06:51:59;;;;;;;166.87;77.87;;;;;;;;;;5011016;28;20240;-59
2022/03/14 06:54:26;;;;;;;167.70;79.07;;;;;;;;;;5011416;28;20491;-60
2022/03/14 06:56:52;;;;;;;168.80;80.53;;;;;;;;;;5011457;28;20420;-59
2022/03/14 06:59:18;;;;;;;170.00;80.07;;;;;;;;;;5011388;28;20184;-58
2022/03/14 07:01:43;;;;;;;162.50;77.07;;;;;;;;;;5011182;28;20497;-60
2022/03/14 07:04:09;;;;;;;148.60;75.20;;;;;;;;;;5010958;28;20403;-59
2022/03/14 07:06:35;;;;;;;156.65;77.05;;;;;;;;;;5011376;28;20847;-60
2022/03/14 07:09:02;;;;;;;163.47;81.47;;;;;;;;;;5011140;28;20174;-61
2022/03/14 07:11:28;;;;;;;161.68;78.93;;;;;;;;;;5011100;28;20931;-60
2022/03/14 07:13:54;;;;;;;131.50;73.50;;;;;;;;;;5011331;28;20174;-60
2022/03/14 07:16:20;;;;;;;178.17;81.03;;;;;;;;;;5013621;28;20524;-60
2022/03/14 07:18:46;;;;;;;182.85;81.90;;;;;;;;;;5014667;28;20475;-60
2022/03/14 07:21:12;;;;;;;174.40;79.18;;;;;;;;;;5014500;28;20568;-60
2022/03/14 07:23:38;;;;;;;186.30;80.67;;;;;;;;;;5014546;28;20267;-60
2022/03/14 07:26:04;;;;;;;171.60;76.93;;;;;;;;;;5014509;28;21006;-60
2022/03/14 07:28:30;;;;;;;175.27;77.28;;;;;;;;;;5014545;28;20471;-61
2022/03/14 07:30:56;;;;;;;181.67;80.27;;;;;;;;;;5014309;28;20255;-60
2022/03/14 07:33:22;;;;;;;188.47;86.77;;;;;;;;;;5014296;28;20418;-60
2022/03/14 07:35:48;;;;;;;183.27;86.05;;;;;;;;;;5012436;28;20501;-59
2022/03/14 07:38:14;;;;;;;184.03;82.23;;;;;;;;;;5014362;28;20181;-60
2022/03/14 07:40:42;;;;;;;159.00;81.65;;;;;;;;;;5013948;28;20436;-59
2022/03/14 07:43:08;;;;;;;186.65;83.20;;;;;;;;;;5013930;28;20174;-60
2022/03/14 07:45:34;;;;;;;197.60;88.70;;;;;;;;;;5013674;28;20696;-58
2022/03/14 07:48:00;;;;;;;228.30;92.85;;;;;;;;;;5014004;28;20400;-58
2022/03/14 07:50:27;;;;;;;186.10;90.72;;;;;;;;;;5013746;28;20204;-55
2022/03/14 07:52:55;;;;;;;175.73;84.82;;;;;;;;;;5014195;28;20177;-56
2022/03/14 07:55:21;;;;;;;131.13;87.00;;;;;;;;;;5013665;28;20215;-57
2022/03/14 07:57:47;;;;;;;185.40;91.10;;;;;;;;;;5013752;28;20180;-58
2022/03/14 08:00:14;;;;;;;174.53;90.63;;;;;;;;;;5013847;28;20458;-59
2022/03/14 08:02:40;;;;;;;167.70;91.68;;;;;;;;;;5013636;28;20417;-60
2022/03/14 08:05:07;;;;;;;175.10;89.65;;;;;;;;;;5013411;28;20205;-60
2022/03/14 08:07:34;;;;;;;179.25;95.47;;;;;;;;;;5013227;28;20180;-58
2022/03/14 08:10:00;;;;;;;177.43;94.78;;;;;;;;;;5013836;28;20188;-59
2022/03/14 08:12:26;;;;;;;176.23;96.07;;;;;;;;;;5013411;28;20184;-59
2022/03/14 08:14:53;;;;;;;184.80;95.20;;;;;;;;;;5013309;28;20196;-60
2022/03/14 08:17:19;;;;;;;182.68;98.90;;;;;;;;;;5013525;28;20251;-60
2022/03/14 08:19:45;;;;;;;186.60;100.85;;;;;;;;;;5013421;28;20181;-60
2022/03/14 08:22:11;;;;;;;191.23;99.30;;;;;;;;;;5013290;28;20178;-59
2022/03/14 08:24:37;;;;;;;194.55;102.07;;;;;;;;;;5013449;28;20701;-61
2022/03/14 08:27:03;;;;;;;121.23;91.33;;;;;;;;;;5012629;28;20215;-60
2022/03/14 08:29:30;;;;;;;197.45;104.35;;;;;;;;;;5013332;28;20412;-60
2022/03/14 08:31:58;;;;;;;174.00;101.38;;;;;;;;;;5012770;28;20188;-60
2022/03/14 08:34:24;;;;;;;176.80;106.50;;;;;;;;;;5013284;28;20204;-59
2022/03/14 08:36:50;;;;;;;165.50;109.60;;;;;;;;;;5013228;28;20204;-61
2022/03/14 08:39:16;;;;;;;174.40;110.63;;;;;;;;;;5013115;28;20201;-62
2022/03/14 08:41:42;;;;;;;173.07;108.97;;;;;;;;;;5012957;28;20803;-60
2022/03/14 08:44:09;;;;;;;155.20;104.22;;;;;;;;;;5013109;28;20223;-61
2022/03/14 08:46:35;;;;;;;152.73;100.78;;;;;;;;;;5013071;28;20216;-60
2022/03/14 08:49:01;;;;;;;131.73;97.88;;;;;;;;;;5013048;28;20533;-62
2022/03/14 08:51:28;;;;;;;140.80;93.72;;;;;;;;;;5012748;28;20185;-61
2022/03/14 08:53:54;;;;;;;142.95;96.32;;;;;;;;;;5012893;28;20243;-62
2022/03/14 08:56:20;;;;;;;140.32;98.28;;;;;;;;;;5012864;28;20218;-61
2022/03/14 08:58:46;;;;;;;137.32;99.50;;;;;;;;;;5012916;28;20612;-57
2022/03/14 09:01:13;;;;;;;151.93;98.32;;;;;;;;;;5012549;28;20213;-59
2022/03/14 09:03:39;;;;;;;163.15;99.95;;;;;;;;;;5012812;28;20224;-58
2022/03/14 09:06:06;;;;;;;195.55;108.40;;;;;;;;;;5012484;28;20213;-59
2022/03/14 09:08:34;;;;;;;207.65;110.90;;;;;;;;;;5012746;28;20518;-59
2022/03/14 09:11:01;;;;;;;205.27;111.22;;;;;;;;;;5012728;28;20707;-57
2022/03/14 09:13:27;;;;;;;215.77;116.50;;;;;;;;;;5012647;28;20188;-60
2022/03/14 09:15:53;;;;;;;215.57;119.07;;;;;;;;;;5012577;28;20289;-57
2022/03/14 09:18:20;;;;;;;208.07;124.57;;;;;;;;;;5012481;28;20205;-58
2022/03/14 09:20:48;;;;;;;215.30;125.68;;;;;;;;;;5012199;28;20907;-56
2022/03/14 09:23:20;;;;;;;218.75;130.85;;;;;;;;;;5012452;28;20513;-61
2022/03/14 09:25:49;;;;;;;206.65;135.40;;;;;;;;;;5012214;28;20205;-61
2022/03/14 09:28:15;;;;;;;211.70;148.45;;;;;;;;;;5012354;28;20162;-60
2022/03/14 09:30:42;;;;;;;201.73;172.30;;;;;;;;;;5011019;28;20679;-62
2022/03/14 09:33:08;;;;;;;207.13;188.93;;;;;;;;;;5015176;28;20735;-61
2022/03/14 09:35:34;;;;;;;282.23;257.13;;;;;;;;;;5012288;28;20197;-59
2022/03/14 09:38:00;;;;;;;339.67;313.30;;;;;;;;;;5012273;28;20438;-61
2022/03/14 09:40:30;;;;;;;396.97;369.30;;;;;;;;;;5011255;28;20420;-62
2022/03/14 09:42:59;;;;;;;420.83;398.03;;;;;;;;;;5012401;28;20412;-62
2022/03/14 09:45:25;;;;;;;510.90;478.73;;;;;;;;;;5012100;28;20847;-61
2022/03/14 09:47:58;;;;;;;567.67;535.30;;;;;;;;;;5012302;28;20942;-62
2022/03/14 09:50:27;;;;;;;590.93;556.97;;;;;;;;;;5011805;28;20412;-60
2022/03/14 09:52:54;;;;;;;592.80;560.00;;;;;;;;;;5012167;28;20408;-59
2022/03/14 09:55:20;;;;;;;606.90;573.33;;;;;;;;;;5011850;28;21216;-62
2022/03/14 09:57:46;;;;;;;633.53;601.67;;;;;;;;;;5011998;28;20437;-61
2022/03/14 10:00:15;;;;;;;630.70;599.20;;;;;;;;;;5011555;28;20889;-60
2022/03/14 10:02:42;;;;;;;636.40;604.80;;;;;;;;;;5011799;28;20419;-62
2022/03/14 10:05:10;;;;;;;638.63;606.53;;;;;;;;;;5012776;28;20452;-61
2022/03/14 10:07:36;;;;;;;640.37;610.70;;;;;;;;;;5011632;28;20951;-62
2022/03/14 10:10:04;;;;;;;630.30;599.47;;;;;;;;;;5011509;28;20421;-62
2022/03/14 10:12:30;;;;;;;598.60;570.53;;;;;;;;;;5011582;28;20496;-62
2022/03/14 10:14:56;;;;;;;580.87;551.37;;;;;;;;;;5011670;28;20508;-61
2022/03/14 10:17:22;;;;;;;543.27;514.47;;;;;;;;;;5011774;28;20436;-61
2022/03/14 10:19:55;;;;;;;487.17;460.57;;;;;;;;;;5011823;28;20408;-61
2022/03/14 10:22:21;;;;;;;538.53;508.83;;;;;;;;;;5011596;28;20466;-62
2022/03/14 10:24:48;;;;;;;589.70;556.10;;;;;;;;;;5011555;28;20940;-62
2022/03/14 10:27:17;;;;;;;557.73;531.17;;;;;;;;;;5011655;28;20509;-60
2022/03/14 10:29:45;;;;;;;553.30;530.00;;;;;;;;;;5011594;28;20416;-60
2022/03/14 10:32:28;;;;;;;592.53;567.63;;;;;;;;;;5011425;28;20413;-60
2022/03/14 10:34:57;;;;;;;215.90;209.23;;;;;;;;;;5010579;28;20436;-61
2022/03/14 10:37:27;;;;;;;555.57;533.63;;;;;;;;;;5011607;28;20401;-61
2022/03/14 10:39:58;;;;;;;610.30;585.00;;;;;;;;;;5011401;28;20929;-60
2022/03/14 10:42:24;;;;;;;623.23;598.00;;;;;;;;;;5011650;28;20428;-60
2022/03/14 10:44:50;;;;;;;607.53;583.43;;;;;;;;;;5011262;28;20936;-62
2022/03/14 10:47:16;;;;;;;654.53;627.60;;;;;;;;;;5011167;28;20533;-61
2022/03/14 10:49:43;;;;;;;559.93;537.97;;;;;;;;;;5011250;28;20503;-60
2022/03/14 10:52:10;;;;;;;589.30;565.93;;;;;;;;;;5014761;28;20423;-62
2022/03/14 10:54:37;;;;;;;620.87;594.97;;;;;;;;;;5015054;28;20919;-60
2022/03/14 10:57:04;;;;;;;612.63;585.23;;;;;;;;;;5015032;28;20393;-61
2022/03/14 10:59:36;;;;;;;606.07;578.60;;;;;;;;;;5015073;28;20413;-60
2022/03/14 11:02:02;;;;;;;640.43;606.13;;;;;;;;;;5014814;28;20415;-60
2022/03/14 11:04:28;;;;;;;658.37;622.57;;;;;;;;;;5014754;28;20440;-60
2022/03/14 11:07:00;;;;;;;665.70;627.83;;;;;;;;;;5014784;28;20467;-61
2022/03/14 11:09:42;;;;;;;638.07;599.27;;;;;;;;;;5014869;28;20408;-62
2022/03/14 11:12:10;;;;;;;625.33;586.63;;;;;;;;;;5014661;28;20404;-61
2022/03/14 11:14:36;;;;;;;607.23;569.33;;;;;;;;;;5014871;28;20931;-61
2022/03/14 11:17:16;;;;;;;600.20;562.93;;;;;;;;;;5014695;28;20416;-61
2022/03/14 11:19:42;;;;;;;624.00;585.40;;;;;;;;;;5014775;28;20404;-62
2022/03/14 11:22:12;;;;;;;675.73;635.83;;;;;;;;;;5014696;28;20416;-61
2022/03/14 11:24:41;;;;;;;672.93;631.97;;;;;;;;;;5014679;28;20428;-63
2022/03/14 11:27:10;;;;;;;668.70;633.80;;;;;;;;;;5014692;28;20895;-61
2022/03/14 11:29:37;;;;;;;681.70;640.90;;;;;;;;;;5014754;28;20400;-63
2022/03/14 11:32:03;;;;;;;692.20;651.70;;;;;;;;;;5011376;28;20408;-61
2022/03/14 11:34:31;;;;;;;658.23;618.23;;;;;;;;;;5014105;28;20456;-62
2022/03/14 11:36:57;;;;;;;661.50;620.60;;;;;;;;;;5014768;28;20496;-61
2022/03/14 11:39:23;;;;;;;641.33;597.97;;;;;;;;;;5014438;28;20483;-61
2022/03/14 11:41:49;;;;;;;574.17;530.80;;;;;;;;;;5014389;28;20864;-61
2022/03/14 11:44:16;;;;;;;562.37;520.00;;;;;;;;;;5014373;28;20413;-61
2022/03/14 11:46:42;;;;;;;582.33;538.17;;;;;;;;;;5013647;28;20463;-60
2022/03/14 11:49:14;;;;;;;613.90;569.50;;;;;;;;;;5014269;28;20412;-61
2022/03/14 11:51:41;;;;;;;620.30;574.50;;;;;;;;;;5013862;28;20943;-60
2022/03/14 11:54:11;;;;;;;592.90;553.27;;;;;;;;;;5014190;28;20404;-61
2022/03/14 11:56:38;;;;;;;613.03;572.43;;;;;;;;;;5013839;28;20412;-61
2022/03/14 11:59:07;;;;;;;667.97;627.07;;;;;;;;;;5014124;28;20404;-59
2022/03/14 12:01:34;;;;;;;690.77;645.83;;;;;;;;;;5013166;28;20419;-62
2022/03/14 12:04:02;;;;;;;655.10;613.33;;;;;;;;;;5013885;28;20448;-61
2022/03/14 12:06:46;;;;;;;669.17;627.80;;;;;;;;;;5013948;28;20472;-62
2022/03/14 12:09:27;;;;;;;665.33;623.37;;;;;;;;;;5013478;28;20776;-61
2022/03/14 12:12:19;;;;;;;624.77;581.60;;;;;;;;;;5013623;28;20962;-61
2022/03/14 12:14:47;;;;;;;620.53;583.20;;;;;;;;;;5013653;28;20443;-61
2022/03/14 12:17:13;;;;;;;596.73;562.53;;;;;;;;;;5013667;28;20765;-60
2022/03/14 12:20:03;;;;;;;559.70;523.43;;;;;;;;;;5013224;28;20511;-61
2022/03/14 12:22:29;;;;;;;302.97;292.10;;;;;;;;;;5005784;28;20429;-61
2022/03/14 12:24:55;;;;;;;567.43;530.17;;;;;;;;;;5013242;28;20907;-62
2022/03/14 12:27:26;;;;;;;582.73;546.67;;;;;;;;;;5013414;28;20519;-61
2022/03/14 12:29:54;;;;;;;565.43;529.23;;;;;;;;;;5013181;28;20499;-61
2022/03/14 12:32:39;;;;;;;558.57;522.90;;;;;;;;;;5013024;28;20401;-59
2022/03/14 12:35:05;;;;;;;542.60;508.83;;;;;;;;;;5013261;28;20839;-61
2022/03/14 12:37:37;;;;;;;520.90;488.40;;;;;;;;;;5013405;28;20404;-60
2022/03/14 12:40:04;;;;;;;508.70;474.80;;;;;;;;;;5013265;28;20396;-62
2022/03/14 12:42:38;;;;;;;490.30;455.23;;;;;;;;;;5013003;28;20416;-61
2022/03/14 12:45:14;;;;;;;418.07;399.17;;;;;;;;;;5012883;28;20491;-61
2022/03/14 12:47:48;;;;;;;446.33;418.03;;;;;;;;;;5013113;28;20428;-62
2022/03/14 12:50:34;;;;;;;136.67;131.87;;;;;;;;;;5013029;28;20411;-61
2022/03/14 12:53:00;;;;;;;445.53;416.63;;;;;;;;;;5013463;28;20424;-60
2022/03/14 12:55:26;;;;;;;438.13;409.70;;;;;;;;;;5012929;28;20439;-60
2022/03/14 12:57:52;;;;;;;436.43;407.07;;;;;;;;;;5013079;28;20417;-61
2022/03/14 13:00:19;;;;;;;401.93;372.33;;;;;;;;;;5012724;28;20416;-58
2022/03/14 13:02:45;;;;;;;135.23;130.23;;;;;;;;;;5012791;28;20443;-61
2022/03/14 13:05:11;;;;;;;138.40;133.27;;;;;;;;;;5012713;28;20653;-59
2022/03/14 13:07:37;;;;;;;190.87;183.20;;;;;;;;;;5012769;28;20409;-60
2022/03/14 13:10:03;;;;;;;160.47;154.30;;;;;;;;;;5012519;28;20405;-58
2022/03/14 13:12:29;;;;;;;199.33;191.03;;;;;;;;;;5012547;28;20413;-60
2022/03/14 13:15:06;;;;;;;361.00;333.63;;;;;;;;;;5012396;28;20428;-60
2022/03/14 13:17:32;;;;;;;345.13;317.77;;;;;;;;;;5012504;28;20404;-61
2022/03/14 13:19:58;;;;;;;326.83;305.33;;;;;;;;;;5012378;28;20896;-61
2022/03/14 13:22:24;;;;;;;333.50;308.80;;;;;;;;;;5012281;28;20407;-59
2022/03/14 13:24:53;;;;;;;353.90;327.90;;;;;;;;;;5012452;28;20997;-61
2022/03/14 13:27:23;;;;;;;344.10;322.60;;;;;;;;;;5012394;28;20460;-60
2022/03/14 13:29:49;;;;;;;346.97;323.20;;;;;;;;;;5012392;28;20416;-61
2022/03/14 13:32:21;;;;;;;360.40;331.83;;;;;;;;;;5012103;28;20405;-61
2022/03/14 13:35:05;;;;;;;353.47;326.00;;;;;;;;;;5012133;28;20424;-61
2022/03/14 13:37:32;;;;;;;356.57;329.10;;;;;;;;;;5012241;28;20892;-58
2022/03/14 13:39:58;;;;;;;366.90;338.13;;;;;;;;;;5012332;28;20427;-61
2022/03/14 13:42:24;;;;;;;339.73;313.67;;;;;;;;;;5011817;28;20415;-62
2022/03/14 13:44:50;;;;;;;347.10;319.30;;;;;;;;;;5009823;28;20444;-61
2022/03/14 13:47:22;;;;;;;351.07;329.40;;;;;;;;;;5011689;28;20471;-61
2022/03/14 13:49:59;;;;;;;354.83;329.57;;;;;;;;;;5010872;28;20562;-62
2022/03/14 13:52:26;;;;;;;347.50;319.87;;;;;;;;;;5011506;28;20491;-61
2022/03/14 13:54:53;;;;;;;333.27;307.20;;;;;;;;;;5012002;28;20486;-60
2022/03/14 13:57:22;;;;;;;317.23;291.73;;;;;;;;;;5011979;28;20468;-61
2022/03/14 13:59:51;;;;;;;336.40;308.97;;;;;;;;;;5011813;28;20419;-61
2022/03/14 14:02:32;;;;;;;326.30;302.33;;;;;;;;;;5011657;28;20417;-60